Time;durP1;ratioP1;P1;durP2;ratioP2;P2;SDS_P1;SDS_P2;PMS_P1;PMS_P2;Temp;Humidity;BMP_temperature;BMP_pressure;BME280_temperature;BME280_humidity;BME280_pressure;Samples;Min_cycle;Max_cycle;Signal;HPM_P1;HPM_P2
2022/06/06 00:00:51;;;;;;;16.02;6.90;;;;;;;;;;5072091;28;20051;-66
2022/06/06 00:03:19;;;;;;;16.27;7.00;;;;;;;;;;5072310;28;20054;-70
2022/06/06 00:05:47;;;;;;;18.85;7.18;;;;;;;;;;5074132;28;20040;-66
2022/06/06 00:08:15;;;;;;;14.10;6.90;;;;;;;;;;5074329;28;20033;-68
2022/06/06 00:10:42;;;;;;;18.48;7.20;;;;;;;;;;5074424;28;20027;-64
2022/06/06 00:13:11;;;;;;;15.15;6.82;;;;;;;;;;5074738;28;20036;-65
2022/06/06 00:15:37;;;;;;;16.00;7.70;;;;;;;;;;5074853;28;20513;-73
2022/06/06 00:18:04;;;;;;;18.15;7.20;;;;;;;;;;5075419;28;20036;-70
2022/06/06 00:20:31;;;;;;;22.40;7.45;;;;;;;;;;5074721;28;20052;-65
2022/06/06 00:22:58;;;;;;;16.80;6.93;;;;;;;;;;5074256;28;20039;-70
2022/06/06 00:25:24;;;;;;;19.70;7.03;;;;;;;;;;5074800;28;20189;-64
2022/06/06 00:27:50;;;;;;;15.25;6.78;;;;;;;;;;5073814;28;20041;-68
2022/06/06 00:30:15;;;;;;;32.25;7.78;;;;;;;;;;5070499;28;20039;-68
2022/06/06 00:35:27;;;;;;;22.77;6.68;;;;;;;;;;5072416;28;20487;-65
2022/06/06 00:37:53;;;;;;;14.80;6.43;;;;;;;;;;5072709;28;20187;-73
2022/06/06 00:40:23;;;;;;;13.65;7.32;;;;;;;;;;5072677;28;20063;-71
2022/06/06 00:42:49;;;;;;;16.33;6.20;;;;;;;;;;5072084;28;20489;-72
2022/06/06 00:45:35;;;;;;;12.85;6.28;;;;;;;;;;5072187;28;20033;-71
2022/06/06 00:48:19;;;;;;;20.95;7.00;;;;;;;;;;5072268;28;20033;-65
2022/06/06 00:51:06;;;;;;;14.02;6.13;;;;;;;;;;5072637;28;20032;-70
2022/06/06 00:54:06;;;;;;;15.15;6.38;;;;;;;;;;5072189;28;20479;-71
2022/06/06 00:56:38;;;;;;;13.27;6.75;;;;;;;;;;5060179;28;20048;-67
2022/06/06 00:59:15;;;;;;;12.57;6.43;;;;;;;;;;5052289;28;20044;-74
2022/06/06 01:01:42;;;;;;;27.92;7.63;;;;;;;;;;5052135;28;20044;-67
2022/06/06 01:04:10;;;;;;;20.38;7.60;;;;;;;;;;5052143;28;20463;-68
2022/06/06 01:06:39;;;;;;;17.52;7.00;;;;;;;;;;5052194;28;20052;-68
2022/06/06 01:09:05;;;;;;;22.05;7.05;;;;;;;;;;5052003;28;20495;-75
2022/06/06 01:11:44;;;;;;;15.65;7.07;;;;;;;;;;5052096;28;20056;-69
2022/06/06 01:14:14;;;;;;;20.98;7.00;;;;;;;;;;5064803;28;20041;-72
2022/06/06 01:16:59;;;;;;;25.48;7.85;;;;;;;;;;5072052;28;20364;-65
2022/06/06 01:19:43;;;;;;;23.80;7.95;;;;;;;;;;5072004;28;20487;-69
2022/06/06 01:22:32;;;;;;;19.02;8.07;;;;;;;;;;5071856;28;20471;-71
2022/06/06 01:25:42;;;;;;;17.92;7.40;;;;;;;;;;5071918;28;20108;-72
2022/06/06 01:28:50;;;;;;;19.70;7.78;;;;;;;;;;5087332;28;20061;-65
2022/06/06 01:31:32;;;;;;;17.83;6.97;;;;;;;;;;5066258;28;20048;-72
2022/06/06 01:34:01;;;;;;;16.65;7.68;;;;;;;;;;5071976;28;20091;-67
2022/06/06 01:36:29;;;;;;;16.38;7.75;;;;;;;;;;5071578;28;20591;-66
2022/06/06 01:38:58;;;;;;;16.63;8.85;;;;;;;;;;5071755;28;20043;-69
2022/06/06 01:42:07;;;;;;;19.95;8.40;;;;;;;;;;5071849;28;20020;-70
2022/06/06 01:44:37;;;;;;;17.95;8.23;;;;;;;;;;5057958;28;20041;-69
2022/06/06 01:47:11;;;;;;;17.30;7.72;;;;;;;;;;5071553;28;20051;-71
2022/06/06 01:49:39;;;;;;;13.82;8.20;;;;;;;;;;5071676;28;20029;-71
2022/06/06 01:52:15;;;;;;;18.73;8.07;;;;;;;;;;5071511;28;20025;-70
2022/06/06 01:54:43;;;;;;;14.27;7.20;;;;;;;;;;5074113;28;20127;-69
2022/06/06 01:57:12;;;;;;;15.45;7.10;;;;;;;;;;5075631;28;20044;-68
2022/06/06 01:59:38;;;;;;;14.05;6.93;;;;;;;;;;5075530;28;20082;-67
2022/06/06 02:02:04;;;;;;;20.27;6.93;;;;;;;;;;5074323;28;20020;-64
2022/06/06 02:04:30;;;;;;;18.75;6.63;;;;;;;;;;5074817;28;20043;-64
2022/06/06 02:06:56;;;;;;;17.45;7.68;;;;;;;;;;5075336;28;20100;-65
2022/06/06 02:09:23;;;;;;;17.83;7.43;;;;;;;;;;5075194;28;20040;-70
2022/06/06 02:11:49;;;;;;;18.00;7.28;;;;;;;;;;5075419;28;20024;-64
2022/06/06 02:14:15;;;;;;;13.57;6.70;;;;;;;;;;5075341;28;20463;-65
2022/06/06 02:16:41;;;;;;;12.05;6.78;;;;;;;;;;5075184;28;20028;-65
2022/06/06 02:19:11;;;;;;;11.60;6.10;;;;;;;;;;5075485;28;20380;-66
2022/06/06 02:21:37;;;;;;;11.77;6.57;;;;;;;;;;5075025;28;20395;-65
2022/06/06 02:24:03;;;;;;;13.27;6.13;;;;;;;;;;5074994;28;20425;-66
2022/06/06 02:26:29;;;;;;;18.98;8.45;;;;;;;;;;5074406;28;20024;-65
2022/06/06 02:28:55;;;;;;;15.63;6.32;;;;;;;;;;5074376;28;20055;-65
2022/06/06 02:31:21;;;;;;;15.10;7.18;;;;;;;;;;5074939;28;20024;-66
2022/06/06 02:33:47;;;;;;;14.27;6.85;;;;;;;;;;5073417;28;20386;-66
2022/06/06 02:36:12;;;;;;;13.18;6.40;;;;;;;;;;5074273;28;20027;-67
2022/06/06 02:38:39;;;;;;;29.05;8.90;;;;;;;;;;5074783;28;20045;-64
2022/06/06 02:41:10;;;;;;;16.02;7.10;;;;;;;;;;5074681;28;20510;-66
2022/06/06 02:43:39;;;;;;;12.43;7.13;;;;;;;;;;5074579;28;20033;-65
2022/06/06 02:46:06;;;;;;;18.50;7.22;;;;;;;;;;5074206;28;20037;-64
2022/06/06 02:48:32;;;;;;;15.82;7.70;;;;;;;;;;5074250;28;20498;-65
2022/06/06 02:50:59;;;;;;;22.42;8.02;;;;;;;;;;5074665;28;20021;-65
2022/06/06 02:53:25;;;;;;;16.35;8.05;;;;;;;;;;5074693;28;20036;-66
2022/06/06 02:55:52;;;;;;;14.60;7.45;;;;;;;;;;5074406;28;20032;-65
2022/06/06 02:58:20;;;;;;;16.10;7.95;;;;;;;;;;5074265;28;20102;-68
2022/06/06 03:00:47;;;;;;;18.55;7.85;;;;;;;;;;5074401;28;20081;-68
2022/06/06 03:03:13;;;;;;;20.08;8.02;;;;;;;;;;5073640;28;20107;-64
2022/06/06 03:05:48;;;;;;;18.88;8.40;;;;;;;;;;5073793;28;20024;-69
2022/06/06 03:08:22;;;;;;;21.55;7.55;;;;;;;;;;5074170;28;20451;-71
2022/06/06 03:10:54;;;;;;;14.38;7.35;;;;;;;;;;5074086;28;20509;-69
2022/06/06 03:13:39;;;;;;;18.63;7.75;;;;;;;;;;5074096;28;20043;-73
2022/06/06 03:22:33;;;;;;;16.92;7.72;;;;;;;;;;5072884;28;20475;-70
2022/06/06 03:25:37;;;;;;;18.58;7.55;;;;;;;;;;5072721;28;20130;-74
2022/06/06 03:28:18;;;;;;;13.50;6.88;;;;;;;;;;5052707;28;20131;-66
2022/06/06 03:31:26;;;;;;;11.73;7.25;;;;;;;;;;5057437;28;20056;-70
2022/06/06 03:34:07;;;;;;;19.65;7.63;;;;;;;;;;5044232;28;20051;-65
2022/06/06 03:36:43;;;;;;;16.20;7.85;;;;;;;;;;5053409;28;20031;-66
2022/06/06 03:39:34;;;;;;;15.13;7.97;;;;;;;;;;5053551;28;20551;-65
2022/06/06 03:42:19;;;;;;;18.50;7.47;;;;;;;;;;5052137;28;20120;-65
2022/06/06 03:44:54;;;;;;;24.77;8.98;;;;;;;;;;5053267;28;20037;-65
2022/06/06 03:47:38;;;;;;;18.35;8.10;;;;;;;;;;5052921;28;20083;-67
2022/06/06 03:50:26;;;;;;;20.25;8.63;;;;;;;;;;5053177;28;20115;-70
2022/06/06 03:53:08;;;;;;;22.02;8.18;;;;;;;;;;5052887;28;20065;-66
2022/06/06 03:55:52;;;;;;;14.38;7.80;;;;;;;;;;5052756;28;20044;-65
2022/06/06 03:58:21;;;;;;;23.98;8.75;;;;;;;;;;5052529;28;20040;-65
2022/06/06 04:00:48;;;;;;;18.95;7.10;;;;;;;;;;5069403;28;20037;-65
2022/06/06 04:03:15;;;;;;;18.48;7.32;;;;;;;;;;5071340;28;20036;-65
2022/06/06 04:05:42;;;;;;;13.38;6.85;;;;;;;;;;5060272;28;20029;-68
2022/06/06 04:08:08;;;;;;;23.75;7.95;;;;;;;;;;5051850;28;20033;-64
2022/06/06 04:11:03;;;;;;;19.98;7.85;;;;;;;;;;5070195;28;20024;-67
2022/06/06 04:13:35;;;;;;;19.75;7.78;;;;;;;;;;5065799;28;20046;-72
2022/06/06 04:16:14;;;;;;;14.45;7.10;;;;;;;;;;5068230;28;20028;-65
2022/06/06 04:19:04;;;;;;;19.17;7.20;;;;;;;;;;5062207;28;20134;-66
2022/06/06 04:21:40;;;;;;;17.08;7.55;;;;;;;;;;5052061;28;20045;-65
2022/06/06 04:24:32;;;;;;;17.17;7.00;;;;;;;;;;5060119;28;20037;-63
2022/06/06 04:27:15;;;;;;;15.73;6.60;;;;;;;;;;5065991;28;20119;-64
2022/06/06 04:30:05;;;;;;;17.15;7.68;;;;;;;;;;5071630;28;20078;-66
2022/06/06 04:32:58;;;;;;;21.20;7.35;;;;;;;;;;5072617;28;20517;-69
2022/06/06 04:35:42;;;;;;;18.33;6.68;;;;;;;;;;5070550;28;20043;-64
2022/06/06 04:38:13;;;;;;;22.23;8.15;;;;;;;;;;5072657;28;20068;-65
2022/06/06 04:41:05;;;;;;;29.80;9.07;;;;;;;;;;5059216;28;20033;-65
2022/06/06 04:43:37;;;;;;;23.17;8.13;;;;;;;;;;5056615;28;20031;-67
2022/06/06 04:46:17;;;;;;;25.35;8.88;;;;;;;;;;5063060;28;20032;-67
2022/06/06 04:48:44;;;;;;;19.55;8.25;;;;;;;;;;5072880;28;20039;-73
2022/06/06 04:51:11;;;;;;;19.35;8.02;;;;;;;;;;5072959;28;20320;-72
2022/06/06 04:53:41;;;;;;;26.23;9.20;;;;;;;;;;5072663;28;20058;-67
2022/06/06 04:56:08;;;;;;;21.70;8.85;;;;;;;;;;5070932;28;20064;-73
2022/06/06 04:58:36;;;;;;;29.67;8.57;;;;;;;;;;5072430;28;20016;-75
2022/06/06 05:01:03;;;;;;;23.30;10.23;;;;;;;;;;5052401;28;20043;-74
2022/06/06 05:03:29;;;;;;;16.40;9.35;;;;;;;;;;5052265;28;20021;-72
2022/06/06 05:06:22;;;;;;;16.77;11.00;;;;;;;;;;5059317;28;20107;-65
2022/06/06 05:09:12;;;;;;;18.35;8.50;;;;;;;;;;5072046;28;20213;-65
2022/06/06 05:12:02;;;;;;;19.85;7.85;;;;;;;;;;5061517;28;20388;-70
2022/06/06 05:15:01;;;;;;;16.13;8.27;;;;;;;;;;5052061;28;20029;-69
2022/06/06 05:17:59;;;;;;;16.73;7.95;;;;;;;;;;5069519;28;20079;-65
2022/06/06 05:20:34;;;;;;;15.52;7.20;;;;;;;;;;5062125;28;20043;-67
2022/06/06 05:23:12;;;;;;;14.73;7.10;;;;;;;;;;5052541;28;20150;-66
2022/06/06 05:26:01;;;;;;;12.65;6.50;;;;;;;;;;5068555;28;20029;-66
2022/06/06 05:28:36;;;;;;;20.92;6.80;;;;;;;;;;5075985;28;20527;-65
2022/06/06 05:31:11;;;;;;;16.50;6.60;;;;;;;;;;5078591;28;20209;-65
2022/06/06 05:33:45;;;;;;;15.90;7.18;;;;;;;;;;5078623;28;20064;-66
2022/06/06 05:36:11;;;;;;;17.00;7.18;;;;;;;;;;5078456;28;20035;-66
2022/06/06 05:38:49;;;;;;;22.05;7.28;;;;;;;;;;5074841;28;20021;-65
2022/06/06 05:41:26;;;;;;;18.15;6.28;;;;;;;;;;5066283;28;20036;-69
2022/06/06 05:44:01;;;;;;;13.35;6.50;;;;;;;;;;5060473;28;20083;-65
2022/06/06 05:46:37;;;;;;;17.88;6.68;;;;;;;;;;5067967;28;20072;-65
2022/06/06 05:49:14;;;;;;;19.65;6.80;;;;;;;;;;5078431;28;20059;-65
2022/06/06 05:51:58;;;;;;;14.70;6.93;;;;;;;;;;5078443;28;20029;-65
2022/06/06 05:54:40;;;;;;;13.95;6.32;;;;;;;;;;5085065;28;20352;-65
2022/06/06 05:57:25;;;;;;;13.02;5.97;;;;;;;;;;5098656;28;20035;-65
2022/06/06 06:00:09;;;;;;;13.25;6.63;;;;;;;;;;5070635;28;20064;-66
2022/06/06 06:02:49;;;;;;;15.48;6.88;;;;;;;;;;5058631;28;20104;-68
2022/06/06 06:05:40;;;;;;;22.55;7.72;;;;;;;;;;5058197;28;20025;-70
2022/06/06 06:08:21;;;;;;;19.92;7.55;;;;;;;;;;5078590;28;20040;-70
2022/06/06 06:11:17;;;;;;;19.95;6.90;;;;;;;;;;5098378;28;20039;-69
2022/06/06 06:13:55;;;;;;;16.52;6.35;;;;;;;;;;5089235;28;20379;-70
2022/06/06 06:16:24;;;;;;;15.80;6.85;;;;;;;;;;5095012;28;20032;-71
2022/06/06 06:19:01;;;;;;;15.48;6.13;;;;;;;;;;5078026;28;20032;-72
2022/06/06 06:21:29;;;;;;;18.40;6.25;;;;;;;;;;5077870;28;20046;-72
2022/06/06 06:24:11;;;;;;;23.80;6.05;;;;;;;;;;5077920;28;20086;-73
2022/06/06 06:26:39;;;;;;;16.13;6.43;;;;;;;;;;5078392;28;20028;-73
2022/06/06 06:29:07;;;;;;;12.85;5.80;;;;;;;;;;5078111;28;20032;-75
2022/06/06 06:32:08;;;;;;;19.27;6.38;;;;;;;;;;5076941;28;20044;-78
2022/06/06 06:34:52;;;;;;;18.80;6.65;;;;;;;;;;5056554;28;20041;-76
2022/06/06 06:37:56;;;;;;;13.93;6.00;;;;;;;;;;5077730;28;20029;-75
2022/06/06 06:40:22;;;;;;;11.38;5.97;;;;;;;;;;5074885;28;20037;-70
2022/06/06 06:43:26;;;;;;;16.25;6.35;;;;;;;;;;5074346;28;20051;-70
2022/06/06 06:45:57;;;;;;;12.80;6.13;;;;;;;;;;5074363;28;20463;-71
2022/06/06 06:48:30;;;;;;;17.85;6.40;;;;;;;;;;5074792;28;20104;-70
2022/06/06 06:51:11;;;;;;;11.65;5.95;;;;;;;;;;5074666;28;20117;-69
2022/06/06 06:53:50;;;;;;;13.77;5.85;;;;;;;;;;5074625;28;20040;-69
2022/06/06 06:56:36;;;;;;;14.52;6.97;;;;;;;;;;5074506;28;20090;-70
2022/06/06 06:59:23;;;;;;;17.40;6.38;;;;;;;;;;5073252;28;20082;-69
2022/06/06 07:11:12;;;;;;;19.20;7.30;;;;;;;;;;5094542;28;20059;-70
2022/06/06 07:13:56;;;;;;;;;;;;;;;;;;5094682;28;20028;-69
2022/06/06 07:16:26;;;;;;;16.83;6.55;;;;;;;;;;5094323;28;19923;-69
2022/06/06 07:19:13;;;;;;;19.23;6.10;;;;;;;;;;5094546;28;20032;-68
2022/06/06 07:21:40;;;;;;;14.43;6.32;;;;;;;;;;5094292;28;20047;-69
2022/06/06 07:24:10;;;;;;;14.85;6.47;;;;;;;;;;5081429;28;20122;-69
2022/06/06 07:26:38;;;;;;;12.70;6.50;;;;;;;;;;5067181;28;20096;-68
2022/06/06 07:29:06;;;;;;;27.70;7.28;;;;;;;;;;5089531;28;20032;-70
2022/06/06 07:31:32;;;;;;;18.95;6.20;;;;;;;;;;5072791;28;20024;-71
2022/06/06 07:34:18;;;;;;;19.10;6.75;;;;;;;;;;5071765;28;20035;-71
2022/06/06 07:37:07;;;;;;;14.27;5.97;;;;;;;;;;5051344;28;20139;-72
2022/06/06 07:39:48;;;;;;;16.33;6.35;;;;;;;;;;5069069;28;20037;-68
2022/06/06 07:42:42;;;;;;;17.08;5.78;;;;;;;;;;5071877;28;20439;-69
2022/06/06 07:45:20;;;;;;;19.05;6.47;;;;;;;;;;5072525;28;20032;-69
2022/06/06 07:48:16;;;;;;;17.35;6.65;;;;;;;;;;5072690;28;20029;-71
2022/06/06 07:51:20;;;;;;;13.35;6.50;;;;;;;;;;5071536;28;20040;-69
2022/06/06 07:54:01;;;;;;;12.98;6.47;;;;;;;;;;5072207;28;20048;-69
2022/06/06 07:56:50;;;;;;;11.68;5.82;;;;;;;;;;5071135;28;20036;-72
2022/06/06 07:59:47;;;;;;;10.02;5.30;;;;;;;;;;5064764;28;20079;-68
2022/06/06 08:02:25;;;;;;;8.45;4.80;;;;;;;;;;5071710;28;20029;-69
2022/06/06 08:05:00;;;;;;;8.07;5.10;;;;;;;;;;5071459;28;20040;-74
2022/06/06 08:07:44;;;;;;;11.00;5.63;;;;;;;;;;5066104;28;20106;-72
2022/06/06 08:10:25;;;;;;;20.38;5.80;;;;;;;;;;5065564;28;20036;-71
2022/06/06 08:13:22;;;;;;;16.77;5.10;;;;;;;;;;5061886;28;20211;-70
2022/06/06 08:16:11;;;;;;;12.93;5.65;;;;;;;;;;5072081;28;20059;-71
2022/06/06 08:18:59;;;;;;;10.15;5.00;;;;;;;;;;5071006;28;20036;-71
2022/06/06 08:21:39;;;;;;;11.88;4.88;;;;;;;;;;5070775;28;20063;-71
2022/06/06 08:24:15;;;;;;;10.32;5.20;;;;;;;;;;5088112;28;20118;-72
2022/06/06 08:26:41;;;;;;;14.93;5.43;;;;;;;;;;5091046;28;20101;-70
2022/06/06 08:29:09;;;;;;;8.55;4.88;;;;;;;;;;5092086;28;20095;-71
2022/06/06 08:31:35;;;;;;;10.00;5.45;;;;;;;;;;5092274;28;20027;-71
2022/06/06 08:34:01;;;;;;;13.15;4.80;;;;;;;;;;5093040;28;20366;-71
2022/06/06 08:36:34;;;;;;;8.77;4.78;;;;;;;;;;5092995;28;20048;-71
2022/06/06 08:39:06;;;;;;;13.73;5.13;;;;;;;;;;5092899;28;20436;-71
2022/06/06 08:41:55;;;;;;;14.43;5.30;;;;;;;;;;5092778;28;20025;-72
2022/06/06 08:44:49;;;;;;;10.95;4.75;;;;;;;;;;5092513;28;20032;-71
2022/06/06 08:47:37;;;;;;;10.27;4.95;;;;;;;;;;5092736;28;20032;-71
2022/06/06 08:50:57;;;;;;;10.23;5.18;;;;;;;;;;5092605;28;20070;-71
2022/06/06 08:54:00;;;;;;;11.15;4.75;;;;;;;;;;5050417;28;20076;-71
2022/06/06 08:57:03;;;;;;;6.90;3.97;;;;;;;;;;5092366;28;20086;-73
2022/06/06 08:59:38;;;;;;;14.50;5.38;;;;;;;;;;5092692;28;20390;-70
2022/06/06 09:02:10;;;;;;;9.23;4.90;;;;;;;;;;5092021;28;20043;-71
2022/06/06 09:04:45;;;;;;;13.57;4.90;;;;;;;;;;5092254;28;20043;-71
2022/06/06 09:07:40;;;;;;;13.88;5.13;;;;;;;;;;5092319;28;20040;-71
2022/06/06 09:10:44;;;;;;;10.30;5.05;;;;;;;;;;5092183;28;20482;-71
2022/06/06 09:13:30;;;;;;;11.48;5.72;;;;;;;;;;5082712;28;20029;-71
2022/06/06 09:16:13;;;;;;;16.20;5.50;;;;;;;;;;5064497;28;20138;-72
2022/06/06 09:19:13;;;;;;;11.15;5.20;;;;;;;;;;5071635;28;20170;-71
2022/06/06 09:22:05;;;;;;;7.80;4.60;;;;;;;;;;5071777;28;20045;-69
2022/06/06 09:24:31;;;;;;;14.52;5.65;;;;;;;;;;5072294;28;20040;-70
2022/06/06 09:27:34;;;;;;;11.93;5.32;;;;;;;;;;5071658;28;20036;-72
2022/06/06 09:30:21;;;;;;;14.45;5.13;;;;;;;;;;5072003;28;20041;-70
2022/06/06 09:32:47;;;;;;;10.18;4.75;;;;;;;;;;5071772;28;20029;-70
2022/06/06 09:35:34;;;;;;;13.15;4.82;;;;;;;;;;5072011;28;20021;-70
2022/06/06 09:38:12;;;;;;;11.90;5.00;;;;;;;;;;5076989;28;20033;-70
2022/06/06 09:41:10;;;;;;;12.07;4.93;;;;;;;;;;5071522;28;20033;-71
2022/06/06 09:43:41;;;;;;;11.15;4.93;;;;;;;;;;5071593;28;20037;-75
2022/06/06 09:46:35;;;;;;;12.00;5.45;;;;;;;;;;5071366;28;20028;-71
2022/06/06 09:49:41;;;;;;;10.20;4.82;;;;;;;;;;5071416;28;20032;-71
2022/06/06 09:52:18;;;;;;;14.23;6.25;;;;;;;;;;5071429;28;20470;-70
2022/06/06 09:59:03;;;;;;;10.18;4.88;;;;;;;;;;5071464;28;20028;-71
2022/06/06 10:01:50;;;;;;;12.90;5.60;;;;;;;;;;5071198;28;20039;-72
2022/06/06 10:04:53;;;;;;;12.43;5.32;;;;;;;;;;5071425;28;20032;-70
2022/06/06 10:07:34;;;;;;;11.13;4.47;;;;;;;;;;5071552;28;20036;-70
2022/06/06 10:10:36;;;;;;;14.13;5.97;;;;;;;;;;5071264;28;20158;-69
2022/06/06 10:13:11;;;;;;;12.63;4.47;;;;;;;;;;5071447;28;20054;-70
2022/06/06 10:15:56;;;;;;;14.98;5.13;;;;;;;;;;5072640;28;20039;-70
2022/06/06 10:18:54;;;;;;;13.73;5.25;;;;;;;;;;5073709;28;20032;-70
2022/06/06 10:21:25;;;;;;;13.90;5.00;;;;;;;;;;5037758;28;20046;-71
2022/06/06 10:24:42;;;;;;;10.82;4.60;;;;;;;;;;5075037;28;20470;-69
2022/06/06 10:27:32;;;;;;;11.85;4.70;;;;;;;;;;5056796;28;20097;-69
2022/06/06 10:30:12;;;;;;;12.38;4.90;;;;;;;;;;5074715;28;20028;-69
2022/06/06 10:32:59;;;;;;;9.40;4.60;;;;;;;;;;5075048;28;20037;-68
2022/06/06 10:35:47;;;;;;;7.43;3.95;;;;;;;;;;5075168;28;20029;-69
2022/06/06 10:38:26;;;;;;;14.25;4.47;;;;;;;;;;5073772;28;20075;-68
2022/06/06 10:41:05;;;;;;;19.40;5.10;;;;;;;;;;5075227;28;20060;-69
2022/06/06 10:43:47;;;;;;;11.73;3.83;;;;;;;;;;5075210;28;20035;-68
2022/06/06 10:46:40;;;;;;;10.38;4.10;;;;;;;;;;5066029;28;20067;-67
2022/06/06 10:49:43;;;;;;;8.95;3.92;;;;;;;;;;5060823;28;20400;-67
2022/06/06 10:52:12;;;;;;;12.38;4.70;;;;;;;;;;5071610;28;20070;-71
2022/06/06 10:54:59;;;;;;;10.05;4.10;;;;;;;;;;5054052;28;20025;-69
2022/06/06 10:57:46;;;;;;;9.85;4.25;;;;;;;;;;5074027;28;20089;-70
2022/06/06 11:00:24;;;;;;;11.05;3.95;;;;;;;;;;5062496;28;20464;-69
2022/06/06 11:03:22;;;;;;;10.63;4.90;;;;;;;;;;5072808;28;20103;-71
2022/06/06 11:06:10;;;;;;;9.65;4.18;;;;;;;;;;5072315;28;20411;-70
2022/06/06 11:09:01;;;;;;;14.20;4.53;;;;;;;;;;5074056;28;20025;-71
2022/06/06 11:11:45;;;;;;;12.32;4.28;;;;;;;;;;5074055;28;20098;-68
2022/06/06 11:14:37;;;;;;;12.88;6.32;;;;;;;;;;5074058;28;20036;-72
2022/06/06 11:17:37;;;;;;;11.37;4.07;;;;;;;;;;5072002;28;20518;-70
2022/06/06 11:20:17;;;;;;;13.25;4.35;;;;;;;;;;5073905;28;20102;-68
2022/06/06 11:22:43;;;;;;;13.18;3.90;;;;;;;;;;5074057;28;20032;-74
2022/06/06 11:25:16;;;;;;;12.88;4.22;;;;;;;;;;5071240;28;20120;-70
2022/06/06 11:28:11;;;;;;;13.80;4.40;;;;;;;;;;5062716;28;20040;-69
2022/06/06 11:31:10;;;;;;;10.57;4.20;;;;;;;;;;5072392;28;20479;-73
2022/06/06 11:33:55;;;;;;;9.90;4.18;;;;;;;;;;5074158;28;20107;-72
2022/06/06 11:36:26;;;;;;;10.88;4.13;;;;;;;;;;5074178;28;20148;-75
2022/06/06 11:39:31;;;;;;;13.15;4.95;;;;;;;;;;5074405;28;20059;-75
2022/06/06 11:42:04;;;;;;;15.20;4.63;;;;;;;;;;5052743;28;20055;-73
2022/06/06 11:44:39;;;;;;;12.05;4.20;;;;;;;;;;5073977;28;20090;-76
2022/06/06 11:47:36;;;;;;;11.13;4.03;;;;;;;;;;5073813;28;20062;-75
2022/06/06 11:50:19;;;;;;;22.83;4.63;;;;;;;;;;5073669;28;20499;-73
2022/06/06 11:52:55;;;;;;;13.15;4.20;;;;;;;;;;5073270;28;20036;-70
2022/06/06 11:55:35;;;;;;;9.38;3.92;;;;;;;;;;5073800;28;20036;-74
2022/06/06 11:58:29;;;;;;;10.48;4.05;;;;;;;;;;5073728;28;20032;-77
2022/06/06 12:01:16;;;;;;;11.10;3.88;;;;;;;;;;5073328;28;20364;-76
2022/06/06 12:04:17;;;;;;;9.85;4.30;;;;;;;;;;5071738;28;20028;-75
2022/06/06 12:07:09;;;;;;;17.55;5.25;;;;;;;;;;5073432;28;20039;-73
2022/06/06 12:09:37;;;;;;;16.10;4.28;;;;;;;;;;5070018;28;20048;-71
2022/06/06 12:12:03;;;;;;;10.25;4.18;;;;;;;;;;5073216;28;20027;-78
2022/06/06 12:14:55;;;;;;;11.75;3.67;;;;;;;;;;5073488;28;20353;-71
2022/06/06 12:17:42;;;;;;;8.25;3.92;;;;;;;;;;5075299;28;20040;-73
2022/06/06 12:20:27;;;;;;;13.07;4.10;;;;;;;;;;5093323;28;20032;-75
2022/06/06 12:22:59;;;;;;;9.57;4.55;;;;;;;;;;5080769;28;20036;-73
2022/06/06 12:25:46;;;;;;;12.95;3.88;;;;;;;;;;5073318;28;20131;-76
2022/06/06 12:28:26;;;;;;;14.52;3.80;;;;;;;;;;5093188;28;20032;-69
2022/06/06 12:31:22;;;;;;;10.88;3.53;;;;;;;;;;5092679;28;20116;-75
2022/06/06 12:34:24;;;;;;;11.25;3.65;;;;;;;;;;5093123;28;20038;-74
2022/06/06 12:36:58;;;;;;;9.23;3.40;;;;;;;;;;5040432;28;20385;-70
2022/06/06 12:39:44;;;;;;;16.75;4.10;;;;;;;;;;5053240;28;20498;-72
2022/06/06 12:42:30;;;;;;;13.80;4.45;;;;;;;;;;5045096;28;20475;-70
2022/06/06 12:45:17;;;;;;;8.73;3.60;;;;;;;;;;5052254;28;20415;-75
2022/06/06 12:48:11;;;;;;;11.48;3.95;;;;;;;;;;5052202;28;20040;-70
2022/06/06 12:50:41;;;;;;;13.10;4.47;;;;;;;;;;5052503;28;20128;-69
2022/06/06 12:53:25;;;;;;;15.25;4.30;;;;;;;;;;5052880;28;20029;-73
2022/06/06 12:56:17;;;;;;;11.98;4.13;;;;;;;;;;5052701;28;20399;-70
2022/06/06 12:59:13;;;;;;;15.63;4.28;;;;;;;;;;5084489;28;20518;-70
2022/06/06 13:02:00;;;;;;;10.57;3.67;;;;;;;;;;5092741;28;20040;-70
2022/06/06 13:05:02;;;;;;;13.27;3.70;;;;;;;;;;5091791;28;20514;-75
2022/06/06 13:07:57;;;;;;;17.15;4.15;;;;;;;;;;5076371;28;20498;-70
2022/06/06 13:10:30;;;;;;;11.32;3.90;;;;;;;;;;5071133;28;20052;-77
2022/06/06 13:12:58;;;;;;;;;;;;;;;;;;5093034;28;20033;-71
2022/06/06 13:15:39;;;;;;;14.68;3.67;;;;;;;;;;5092632;28;19999;-78
2022/06/06 13:18:29;;;;;;;7.88;3.35;;;;;;;;;;5092635;28;20059;-75
2022/06/06 13:20:56;;;;;;;13.73;3.17;;;;;;;;;;5092221;28;20052;-75
2022/06/06 13:23:46;;;;;;;9.20;3.20;;;;;;;;;;5092153;28;20028;-74
2022/06/06 13:26:34;;;;;;;9.95;2.95;;;;;;;;;;5081067;28;20037;-74
2022/06/06 13:29:00;;;;;;;14.38;3.30;;;;;;;;;;5070637;28;20044;-75
2022/06/06 13:31:53;;;;;;;11.45;3.50;;;;;;;;;;5070691;28;20107;-74
2022/06/06 13:34:34;;;;;;;18.15;3.65;;;;;;;;;;5070390;28;20538;-76
2022/06/06 13:36:59;;;;;;;13.13;3.95;;;;;;;;;;5049244;28;20222;-71
2022/06/06 13:39:40;;;;;;;16.77;3.80;;;;;;;;;;5049759;28;20403;-75
2022/06/06 13:42:18;;;;;;;21.15;3.30;;;;;;;;;;5050110;28;20040;-72
2022/06/06 13:44:45;;;;;;;16.05;3.35;;;;;;;;;;5051012;28;20025;-75
2022/06/06 13:47:48;;;;;;;17.48;3.45;;;;;;;;;;5051167;28;20029;-74
2022/06/06 13:50:23;;;;;;;18.00;2.92;;;;;;;;;;5019266;28;20041;-73
2022/06/06 13:53:40;;;;;;;22.52;4.05;;;;;;;;;;5053645;28;20037;-71
2022/06/06 13:56:08;;;;;;;14.82;3.40;;;;;;;;;;5041556;28;20076;-75
2022/06/06 13:58:43;;;;;;;43.38;5.68;;;;;;;;;;5054417;28;20138;-73
2022/06/06 14:01:24;;;;;;;39.88;5.70;;;;;;;;;;5054120;28;20467;-74
2022/06/06 14:04:10;;;;;;;22.58;4.38;;;;;;;;;;5054182;28;20060;-72
2022/06/06 14:06:47;;;;;;;16.67;4.75;;;;;;;;;;5054281;28;20028;-70
2022/06/06 14:09:16;;;;;;;14.27;4.30;;;;;;;;;;5056321;28;20029;-71
2022/06/06 14:11:49;;;;;;;14.30;4.25;;;;;;;;;;5055837;28;20408;-72
2022/06/06 14:14:19;;;;;;;;;;;;;;;;;;5056637;28;20029;-70
2022/06/06 14:16:46;;;;;;;10.40;4.03;;;;;;;;;;5056182;28;20270;-72
2022/06/06 14:19:16;;;;;;;10.00;3.80;;;;;;;;;;5055959;28;20067;-70
2022/06/06 14:22:03;;;;;;;12.77;4.05;;;;;;;;;;5055612;28;20041;-76
2022/06/06 14:24:34;;;;;;;12.48;4.53;;;;;;;;;;5055945;28;20043;-73
2022/06/06 14:27:06;;;;;;;13.02;4.32;;;;;;;;;;5055787;28;20047;-69
2022/06/06 14:29:35;;;;;;;10.10;3.97;;;;;;;;;;5055458;28;20029;-72
2022/06/06 14:32:04;;;;;;;12.13;4.40;;;;;;;;;;5055611;28;20131;-71
2022/06/06 14:34:42;;;;;;;18.15;4.55;;;;;;;;;;5070100;28;20036;-70
2022/06/06 14:37:17;;;;;;;13.95;4.78;;;;;;;;;;5075473;28;20089;-70
2022/06/06 14:39:49;;;;;;;13.15;4.00;;;;;;;;;;5075177;28;20475;-69
2022/06/06 14:42:19;;;;;;;28.02;4.40;;;;;;;;;;5074749;28;20072;-73
2022/06/06 14:44:55;;;;;;;21.15;4.00;;;;;;;;;;5074537;28;20112;-77
2022/06/06 14:47:23;;;;;;;22.17;4.82;;;;;;;;;;5074663;28;20036;-70
2022/06/06 14:53:03;;;;;;;19.02;4.65;;;;;;;;;;5074454;28;20075;-73
2022/06/06 14:55:32;;;;;;;19.75;4.97;;;;;;;;;;5074808;28;20033;-72
2022/06/06 14:58:06;;;;;;;14.68;4.00;;;;;;;;;;5074712;28;20143;-72
2022/06/06 15:00:39;;;;;;;14.82;3.53;;;;;;;;;;5072931;28;20030;-71
2022/06/06 15:03:08;;;;;;;12.82;3.03;;;;;;;;;;5074846;28;20033;-72
2022/06/06 15:05:35;;;;;;;11.73;3.28;;;;;;;;;;5074547;28;20047;-72
2022/06/06 15:08:24;;;;;;;19.80;3.67;;;;;;;;;;5074491;28;20032;-73
2022/06/06 15:10:55;;;;;;;17.20;3.13;;;;;;;;;;5053973;28;20029;-73
2022/06/06 15:13:22;;;;;;;10.23;3.35;;;;;;;;;;5073158;28;20368;-71
2022/06/06 15:15:52;;;;;;;12.00;2.63;;;;;;;;;;5073047;28;20058;-74
2022/06/06 15:18:34;;;;;;;12.90;2.60;;;;;;;;;;5073366;28;20024;-71
2022/06/06 15:21:02;;;;;;;14.15;3.00;;;;;;;;;;5071652;28;20043;-73
2022/06/06 15:23:43;;;;;;;15.43;3.20;;;;;;;;;;5073351;28;20475;-73
2022/06/06 15:26:18;;;;;;;8.18;2.15;;;;;;;;;;5073324;28;20041;-70
2022/06/06 15:28:49;;;;;;;11.50;3.08;;;;;;;;;;5073205;28;20511;-70
2022/06/06 15:31:27;;;;;;;9.05;2.67;;;;;;;;;;5073008;28;20464;-70
2022/06/06 15:33:56;;;;;;;13.73;3.75;;;;;;;;;;5073185;28;20029;-69
2022/06/06 15:37:04;;;;;;;10.15;3.28;;;;;;;;;;5070901;28;20227;-71
2022/06/06 15:40:11;;;;;;;10.80;5.13;;;;;;;;;;5080760;28;20503;-71
2022/06/06 15:42:45;;;;;;;12.25;5.20;;;;;;;;;;5072444;28;20584;-72
2022/06/06 15:45:23;;;;;;;12.13;5.50;;;;;;;;;;5072769;28;20028;-74
2022/06/06 15:48:17;;;;;;;10.30;5.05;;;;;;;;;;5072403;28;20036;-71
2022/06/06 15:50:54;;;;;;;11.98;5.68;;;;;;;;;;5072600;28;20403;-73
2022/06/06 15:53:49;;;;;;;7.15;4.68;;;;;;;;;;5079622;28;20024;-74
2022/06/06 15:56:30;;;;;;;11.20;5.22;;;;;;;;;;5092300;28;20063;-68
2022/06/06 15:59:31;;;;;;;14.15;6.07;;;;;;;;;;5092241;28;20605;-70
2022/06/06 16:02:19;;;;;;;23.27;6.72;;;;;;;;;;5091943;28;20504;-73
2022/06/06 16:04:54;;;;;;;14.98;6.22;;;;;;;;;;5092316;28;20374;-71
2022/06/06 16:07:31;;;;;;;13.00;6.95;;;;;;;;;;5091626;28;20474;-69
2022/06/06 16:10:19;;;;;;;13.63;6.07;;;;;;;;;;5092320;28;20107;-71